createdAt,value
2022-08-29T00:00:31.080Z,1013.14
2022-08-29T00:01:31.071Z,1013.14
2022-08-29T00:02:31.135Z,1013.15
2022-08-29T00:03:31.078Z,1013.12
2022-08-29T00:04:31.731Z,1013.11
2022-08-29T00:05:31.058Z,1013.09
2022-08-29T00:06:31.079Z,1013.11
2022-08-29T00:07:31.043Z,1013.08
2022-08-29T00:08:31.040Z,1013.10
2022-08-29T00:09:31.060Z,1013.11
2022-08-29T00:10:31.065Z,1013.10
2022-08-29T00:11:31.047Z,1013.14
2022-08-29T00:12:31.042Z,1013.13
2022-08-29T00:13:31.071Z,1013.14
2022-08-29T00:14:31.024Z,1013.16
2022-08-29T00:15:31.006Z,1013.14
2022-08-29T00:16:31.067Z,1013.11
2022-08-29T00:17:31.010Z,1013.13
2022-08-29T00:18:30.996Z,1013.10
2022-08-29T00:19:30.993Z,1013.11
2022-08-29T00:20:34.641Z,1013.13
2022-08-29T00:21:30.995Z,1013.17
2022-08-29T00:22:31.007Z,1013.10
2022-08-29T00:23:30.973Z,1013.12
2022-08-29T00:24:30.959Z,1013.11
2022-08-29T00:25:30.957Z,1013.09
2022-08-29T00:26:31.422Z,1013.05
2022-08-29T00:27:30.948Z,1013.10
2022-08-29T00:28:30.965Z,1013.13
2022-08-29T00:29:30.933Z,1013.10
2022-08-29T00:30:30.945Z,1013.10
2022-08-29T00:31:31.078Z,1013.12
2022-08-29T00:32:30.943Z,1013.12
2022-08-29T00:33:30.942Z,1013.12
2022-08-29T00:34:30.915Z,1013.10
2022-08-29T00:35:30.977Z,1013.10
2022-08-29T00:36:30.906Z,1013.19
2022-08-29T00:37:30.894Z,1013.20
2022-08-29T00:38:30.889Z,1013.15
2022-08-29T00:39:32.898Z,1013.19
2022-08-29T00:40:30.957Z,1013.18
2022-08-29T00:41:30.889Z,1013.19
2022-08-29T00:42:30.873Z,1013.18
2022-08-29T00:43:30.895Z,1013.18
2022-08-29T00:44:30.884Z,1013.21
2022-08-29T00:45:30.909Z,1013.22
2022-08-29T00:46:30.874Z,1013.22
2022-08-29T00:47:30.870Z,1013.22
2022-08-29T00:48:30.854Z,1013.23
2022-08-29T00:49:30.836Z,1013.22
2022-08-29T00:50:30.844Z,1013.20
2022-08-29T00:51:30.833Z,1013.21
2022-08-29T00:52:30.816Z,1013.20
2022-08-29T00:53:30.818Z,1013.19
2022-08-29T00:54:30.823Z,1013.19
2022-08-29T00:55:30.805Z,1013.15
2022-08-29T00:56:30.806Z,1013.16
2022-08-29T00:57:30.791Z,1013.18
2022-08-29T00:58:30.788Z,1013.15
2022-08-29T00:59:30.817Z,1013.16
2022-08-29T01:00:30.803Z,1013.18
2022-08-29T01:01:30.899Z,1013.20
2022-08-29T01:02:30.807Z,1013.18
2022-08-29T01:03:30.783Z,1013.20
2022-08-29T01:04:30.789Z,1013.19
2022-08-29T01:05:30.772Z,1013.22
2022-08-29T01:06:30.749Z,1013.22
2022-08-29T01:07:30.763Z,1013.20
2022-08-29T01:08:30.736Z,1013.23
2022-08-29T01:09:30.753Z,1013.21
2022-08-29T01:10:30.755Z,1013.20
2022-08-29T01:11:30.720Z,1013.17
2022-08-29T01:12:30.730Z,1013.20
2022-08-29T01:13:30.738Z,1013.25
2022-08-29T01:14:30.700Z,1013.27
2022-08-29T01:15:30.714Z,1013.27
2022-08-29T01:16:30.798Z,1013.25
2022-08-29T01:17:30.696Z,1013.27
2022-08-29T01:18:30.692Z,1013.29
2022-08-29T01:19:30.717Z,1013.30
2022-08-29T01:20:30.679Z,1013.30
2022-08-29T01:21:30.680Z,1013.27
2022-08-29T01:22:30.670Z,1013.28
2022-08-29T01:23:30.674Z,1013.31
2022-08-29T01:24:30.651Z,1013.33
2022-08-29T01:25:30.672Z,1013.33
2022-08-29T01:26:30.665Z,1013.35
2022-08-29T01:27:30.659Z,1013.39
2022-08-29T01:28:30.652Z,1013.37
2022-08-29T01:29:30.624Z,1013.40
2022-08-29T01:30:30.640Z,1013.46
2022-08-29T01:31:38.631Z,1013.48
2022-08-29T01:32:30.651Z,1013.47
2022-08-29T01:33:30.605Z,1013.55
2022-08-29T01:34:30.625Z,1013.53
2022-08-29T01:35:30.626Z,1013.54
2022-08-29T01:36:30.589Z,1013.51
2022-08-29T01:37:30.579Z,1013.53
2022-08-29T01:38:30.580Z,1013.50
2022-08-29T01:39:30.602Z,1013.50
2022-08-29T01:40:30.637Z,1013.49
2022-08-29T01:41:30.558Z,1013.51
2022-08-29T01:42:32.321Z,1013.51
2022-08-29T01:43:30.548Z,1013.52
2022-08-29T01:44:30.549Z,1013.45
2022-08-29T01:45:30.604Z,1013.47
2022-08-29T01:46:30.538Z,1013.46
2022-08-29T01:47:30.565Z,1013.48
2022-08-29T01:48:30.547Z,1013.48
2022-08-29T01:49:30.519Z,1013.49
2022-08-29T01:50:30.540Z,1013.49
2022-08-29T01:51:30.527Z,1013.48
2022-08-29T01:52:30.528Z,1013.48
2022-08-29T01:53:30.505Z,1013.49
2022-08-29T01:54:30.486Z,1013.52
2022-08-29T01:55:30.491Z,1013.53
2022-08-29T01:56:30.491Z,1013.49
2022-08-29T01:57:30.483Z,1013.54
2022-08-29T01:58:30.481Z,1013.55
2022-08-29T01:59:30.474Z,1013.54
2022-08-29T02:00:30.457Z,1013.53
2022-08-29T02:01:30.513Z,1013.52
2022-08-29T02:02:30.591Z,1013.55
2022-08-29T02:03:30.440Z,1013.59
2022-08-29T02:04:30.462Z,1013.58
2022-08-29T02:05:30.437Z,1013.57
2022-08-29T02:06:30.459Z,1013.58
2022-08-29T02:07:30.416Z,1013.54
2022-08-29T02:08:30.449Z,1013.58
2022-08-29T02:09:30.405Z,1013.61
2022-08-29T02:10:30.425Z,1013.63
2022-08-29T02:11:30.397Z,1013.66
2022-08-29T02:12:30.397Z,1013.66
2022-08-29T02:13:30.425Z,1013.63
2022-08-29T02:14:30.404Z,1013.67
2022-08-29T02:15:30.384Z,1013.64
2022-08-29T02:16:30.410Z,1013.64
2022-08-29T02:17:30.375Z,1013.65
2022-08-29T02:18:30.375Z,1013.66
2022-08-29T02:19:30.360Z,1013.70
2022-08-29T02:20:30.370Z,1013.71
2022-08-29T02:21:30.370Z,1013.68
2022-08-29T02:22:30.333Z,1013.63
2022-08-29T02:23:31.338Z,1013.62
2022-08-29T02:24:30.327Z,1013.60
2022-08-29T02:25:30.316Z,1013.58
2022-08-29T02:26:30.315Z,1013.56
2022-08-29T02:27:30.349Z,1013.51
2022-08-29T02:28:30.294Z,1013.51
2022-08-29T02:29:31.958Z,1013.56
2022-08-29T02:30:30.287Z,1013.50
2022-08-29T02:31:30.391Z,1013.49
2022-08-29T02:32:30.281Z,1013.48
2022-08-29T02:33:30.269Z,1013.47
2022-08-29T02:34:30.270Z,1013.48
2022-08-29T02:35:33.471Z,1013.46
2022-08-29T02:36:30.281Z,1013.46
2022-08-29T02:37:30.242Z,1013.43
2022-08-29T02:38:30.237Z,1013.43
2022-08-29T02:39:30.269Z,1013.45
2022-08-29T02:40:31.627Z,1013.46
2022-08-29T02:41:30.230Z,1013.42
2022-08-29T02:42:30.261Z,1013.42
2022-08-29T02:43:30.253Z,1013.43
2022-08-29T02:44:30.216Z,1013.43
2022-08-29T02:45:30.201Z,1013.40
2022-08-29T02:46:30.257Z,1013.39
2022-08-29T02:47:30.213Z,1013.41
2022-08-29T02:48:30.228Z,1013.41
2022-08-29T02:49:30.374Z,1013.44
2022-08-29T02:50:30.175Z,1013.44
2022-08-29T02:51:30.165Z,1013.41
2022-08-29T02:52:30.731Z,1013.41
2022-08-29T02:53:30.170Z,1013.44
2022-08-29T02:54:30.156Z,1013.45
2022-08-29T02:55:30.176Z,1013.43
2022-08-29T02:56:30.154Z,1013.47
2022-08-29T02:57:30.143Z,1013.46
2022-08-29T02:58:30.125Z,1013.45
2022-08-29T02:59:30.131Z,1013.45
2022-08-29T03:00:30.147Z,1013.48
2022-08-29T03:01:30.121Z,1013.49
2022-08-29T03:02:30.119Z,1013.50
2022-08-29T03:03:30.138Z,1013.49
2022-08-29T03:04:30.091Z,1013.51
2022-08-29T03:05:30.113Z,1013.52
2022-08-29T03:06:30.081Z,1013.45
2022-08-29T03:07:30.077Z,1013.49
2022-08-29T03:08:30.085Z,1013.49
2022-08-29T03:09:30.062Z,1013.48
2022-08-29T03:10:30.082Z,1013.44
2022-08-29T03:11:30.056Z,1013.37
2022-08-29T03:12:30.055Z,1013.40
2022-08-29T03:13:30.046Z,1013.38
2022-08-29T03:14:30.031Z,1013.36
2022-08-29T03:15:30.037Z,1013.32
2022-08-29T03:16:30.100Z,1013.33
2022-08-29T03:17:30.022Z,1013.33
2022-08-29T03:18:30.012Z,1013.32
2022-08-29T03:19:30.009Z,1013.33
2022-08-29T03:20:30.037Z,1013.31
2022-08-29T03:21:30.000Z,1013.30
2022-08-29T03:22:30.005Z,1013.33
2022-08-29T03:23:30.013Z,1013.31
2022-08-29T03:24:29.992Z,1013.27
2022-08-29T03:25:30.006Z,1013.25
2022-08-29T03:26:29.982Z,1013.25
2022-08-29T03:27:29.958Z,1013.25
2022-08-29T03:28:29.958Z,1013.24
2022-08-29T03:29:29.981Z,1013.22
2022-08-29T03:30:29.962Z,1013.23
2022-08-29T03:31:30.076Z,1013.23
2022-08-29T03:32:29.960Z,1013.28
2022-08-29T03:33:29.930Z,1013.27
2022-08-29T03:34:29.938Z,1013.29
2022-08-29T03:35:29.937Z,1013.29
2022-08-29T03:36:29.901Z,1013.29
2022-08-29T03:37:29.925Z,1013.26
2022-08-29T03:38:29.904Z,1013.31
2022-08-29T03:39:29.905Z,1013.26
2022-08-29T03:40:29.915Z,1013.24
2022-08-29T03:41:29.889Z,1013.27
2022-08-29T03:42:29.890Z,1013.28
2022-08-29T03:43:29.867Z,1013.28
2022-08-29T03:44:29.893Z,1013.30
2022-08-29T03:45:29.870Z,1013.30
2022-08-29T03:46:29.886Z,1013.32
2022-08-29T03:47:29.865Z,1013.30
2022-08-29T03:48:29.863Z,1013.30
2022-08-29T03:49:29.837Z,1013.28
2022-08-29T03:50:29.876Z,1013.35
2022-08-29T03:51:29.838Z,1013.35
2022-08-29T03:52:29.827Z,1013.37
2022-08-29T03:53:30.821Z,1013.34
2022-08-29T03:54:29.819Z,1013.39
2022-08-29T03:55:29.831Z,1013.39
2022-08-29T03:56:29.791Z,1013.43
2022-08-29T03:57:30.379Z,1013.38
2022-08-29T03:58:29.805Z,1013.41
2022-08-29T03:59:29.781Z,1013.41
2022-08-29T04:00:29.771Z,1013.45
2022-08-29T04:01:29.858Z,1013.42
2022-08-29T04:02:29.846Z,1013.36
2022-08-29T04:03:31.498Z,1013.36
2022-08-29T04:04:29.736Z,1013.38
2022-08-29T04:05:29.752Z,1013.35
2022-08-29T04:06:29.733Z,1013.34
2022-08-29T04:07:29.728Z,1013.32
2022-08-29T04:08:29.742Z,1013.30
2022-08-29T04:09:29.725Z,1013.26
2022-08-29T04:10:29.704Z,1013.27
2022-08-29T04:11:29.703Z,1013.29
2022-08-29T04:12:29.714Z,1013.25
2022-08-29T04:13:29.686Z,1013.31
2022-08-29T04:14:29.687Z,1013.31
2022-08-29T04:15:29.693Z,1013.32
2022-08-29T04:16:30.794Z,1013.33
2022-08-29T04:17:29.678Z,1013.33
2022-08-29T04:18:29.666Z,1013.35
2022-08-29T04:19:29.651Z,1013.36
2022-08-29T04:20:29.695Z,1013.36
2022-08-29T04:21:29.687Z,1013.34
2022-08-29T04:22:29.646Z,1013.40
2022-08-29T04:23:29.635Z,1013.37
2022-08-29T04:24:29.633Z,1013.42
2022-08-29T04:25:32.918Z,1013.41
2022-08-29T04:26:36.844Z,1013.41
2022-08-29T04:27:29.611Z,1013.46
2022-08-29T04:28:29.623Z,1013.47
2022-08-29T04:29:29.595Z,1013.52
2022-08-29T04:30:29.618Z,1013.50
2022-08-29T04:31:29.640Z,1013.50
2022-08-29T04:32:29.585Z,1013.54
2022-08-29T04:33:29.577Z,1013.51
2022-08-29T04:34:29.564Z,1013.50
2022-08-29T04:35:29.592Z,1013.47
2022-08-29T04:36:29.571Z,1013.51
2022-08-29T04:37:29.546Z,1013.50
2022-08-29T04:38:29.556Z,1013.50
2022-08-29T04:39:29.531Z,1013.53
2022-08-29T04:40:29.560Z,1013.56
2022-08-29T04:41:29.560Z,1013.49
2022-08-29T04:42:29.525Z,1013.59
2022-08-29T04:43:29.539Z,1013.53
2022-08-29T04:44:29.531Z,1013.52
2022-08-29T04:45:29.538Z,1013.54
2022-08-29T04:46:29.579Z,1013.55
2022-08-29T04:47:29.508Z,1013.59
2022-08-29T04:48:29.482Z,1013.56
2022-08-29T04:49:29.483Z,1013.55
2022-08-29T04:50:29.487Z,1013.58
2022-08-29T04:51:29.477Z,1013.59
2022-08-29T04:52:29.492Z,1013.60
2022-08-29T04:53:29.484Z,1013.60
2022-08-29T04:54:29.793Z,1013.60
2022-08-29T04:55:29.493Z,1013.57
2022-08-29T04:56:29.796Z,1013.59
2022-08-29T04:57:29.437Z,1013.53
2022-08-29T04:58:29.417Z,1013.55
2022-08-29T04:59:29.419Z,1013.51
2022-08-29T05:00:29.438Z,1013.48
2022-08-29T05:01:29.466Z,1013.50
2022-08-29T05:02:29.440Z,1013.51
2022-08-29T05:03:29.412Z,1013.54
2022-08-29T05:04:29.409Z,1013.50
2022-08-29T05:05:29.386Z,1013.46
2022-08-29T05:06:29.403Z,1013.42
2022-08-29T05:07:29.387Z,1013.44
2022-08-29T05:08:29.397Z,1013.44
2022-08-29T05:09:29.383Z,1013.45
2022-08-29T05:10:29.350Z,1013.47
2022-08-29T05:11:29.375Z,1013.46
2022-08-29T05:12:29.355Z,1013.47
2022-08-29T05:13:29.348Z,1013.47
2022-08-29T05:14:29.332Z,1013.49
2022-08-29T05:15:29.369Z,1013.51
2022-08-29T05:16:29.362Z,1013.49
2022-08-29T05:17:29.332Z,1013.45
2022-08-29T05:18:29.328Z,1013.48
2022-08-29T05:19:29.297Z,1013.52
2022-08-29T05:20:29.335Z,1013.52
2022-08-29T05:21:29.297Z,1013.54
2022-08-29T05:22:29.300Z,1013.58
2022-08-29T05:23:29.298Z,1013.55
2022-08-29T05:24:29.271Z,1013.62
2022-08-29T05:25:29.275Z,1013.60
2022-08-29T05:26:29.274Z,1013.58
2022-08-29T05:27:29.250Z,1013.62
2022-08-29T05:28:29.265Z,1013.63
2022-08-29T05:29:29.264Z,1013.62
2022-08-29T05:30:29.265Z,1013.65
2022-08-29T05:31:29.291Z,1013.70
2022-08-29T05:32:29.250Z,1013.69
2022-08-29T05:33:29.235Z,1013.71
2022-08-29T05:34:33.930Z,1013.73
2022-08-29T05:35:29.208Z,1013.79
2022-08-29T05:36:29.207Z,1013.77
2022-08-29T05:37:29.208Z,1013.82
2022-08-29T05:38:29.187Z,1013.82
2022-08-29T05:39:29.198Z,1013.84
2022-08-29T05:40:29.222Z,1013.86
2022-08-29T05:41:29.187Z,1013.87
2022-08-29T05:42:29.191Z,1013.87
2022-08-29T05:43:29.154Z,1013.87
2022-08-29T05:44:34.208Z,1013.84
2022-08-29T05:45:29.157Z,1013.85
2022-08-29T05:46:29.193Z,1013.87
2022-08-29T05:47:29.178Z,1013.85
2022-08-29T05:48:29.131Z,1013.90
2022-08-29T05:49:29.141Z,1013.90
2022-08-29T05:50:29.140Z,1013.88
2022-08-29T05:51:29.126Z,1013.89
2022-08-29T05:52:29.126Z,1013.82
2022-08-29T05:53:29.136Z,1013.83
2022-08-29T05:54:30.096Z,1013.82
2022-08-29T05:55:29.108Z,1013.84
2022-08-29T05:56:29.079Z,1013.89
2022-08-29T05:57:29.105Z,1013.83
2022-08-29T05:58:29.091Z,1013.87
2022-08-29T05:59:29.082Z,1013.90
2022-08-29T06:00:29.059Z,1013.90
2022-08-29T06:01:29.085Z,1013.90
2022-08-29T06:02:29.194Z,1013.91
2022-08-29T06:03:29.233Z,1013.88
2022-08-29T06:04:29.064Z,1013.89
2022-08-29T06:05:29.040Z,1013.88
2022-08-29T06:06:29.034Z,1013.90
2022-08-29T06:07:29.035Z,1013.88
2022-08-29T06:08:29.035Z,1013.93
2022-08-29T06:09:29.030Z,1013.95
2022-08-29T06:10:28.996Z,1013.98
2022-08-29T06:11:29.024Z,1013.97
2022-08-29T06:12:29.015Z,1013.95
2022-08-29T06:13:29.016Z,1013.94
2022-08-29T06:14:29.000Z,1013.96
2022-08-29T06:15:29.080Z,1013.96
2022-08-29T06:16:28.968Z,1013.98
2022-08-29T06:17:29.018Z,1014.03
2022-08-29T06:18:35.472Z,1014.06
2022-08-29T06:19:28.956Z,1014.05
2022-08-29T06:20:28.969Z,1014.09
2022-08-29T06:21:28.932Z,1014.12
2022-08-29T06:22:28.956Z,1014.12
2022-08-29T06:23:28.928Z,1014.16
2022-08-29T06:24:28.930Z,1014.15
2022-08-29T06:25:39.647Z,1014.15
2022-08-29T06:26:28.932Z,1014.15
2022-08-29T06:27:28.921Z,1014.17
2022-08-29T06:28:28.924Z,1014.17
2022-08-29T06:29:28.920Z,1014.17
2022-08-29T06:30:28.923Z,1014.20
2022-08-29T06:31:28.934Z,1014.15
2022-08-29T06:32:28.888Z,1014.13
2022-08-29T06:33:28.883Z,1014.10
2022-08-29T06:34:28.891Z,1014.07
2022-08-29T06:35:28.874Z,1014.07
2022-08-29T06:36:28.856Z,1014.08
2022-08-29T06:37:28.844Z,1014.03
2022-08-29T06:38:28.873Z,1014.04
2022-08-29T06:39:28.909Z,1014.04
2022-08-29T06:40:28.883Z,1014.03
2022-08-29T06:41:28.855Z,1014.06
2022-08-29T06:42:28.881Z,1014.06
2022-08-29T06:43:28.837Z,1014.05
2022-08-29T06:44:30.519Z,1014.05
2022-08-29T06:45:28.811Z,1014.05
2022-08-29T06:46:28.920Z,1014.04
2022-08-29T06:47:28.811Z,1014.01
2022-08-29T06:48:29.717Z,1014.07
2022-08-29T06:49:28.817Z,1014.04
2022-08-29T06:50:28.811Z,1014.05
2022-08-29T06:51:28.813Z,1014.07
2022-08-29T06:52:28.797Z,1014.12
2022-08-29T06:53:32.215Z,1014.10
2022-08-29T06:54:28.899Z,1014.09
2022-08-29T06:55:28.790Z,1014.13
2022-08-29T06:56:28.781Z,1014.12
2022-08-29T06:57:28.788Z,1014.11
2022-08-29T06:58:28.767Z,1014.13
2022-08-29T06:59:28.766Z,1014.13
2022-08-29T07:00:28.743Z,1014.12
2022-08-29T07:01:28.771Z,1014.11
2022-08-29T07:02:28.780Z,1014.15
2022-08-29T07:03:28.726Z,1014.17
2022-08-29T07:04:28.717Z,1014.16
2022-08-29T07:05:28.742Z,1014.12
2022-08-29T07:06:28.714Z,1014.16
2022-08-29T07:07:28.753Z,1014.16
2022-08-29T07:08:28.716Z,1014.21
2022-08-29T07:09:28.707Z,1014.23
2022-08-29T07:10:28.726Z,1014.22
2022-08-29T07:11:28.701Z,1014.29
2022-08-29T07:12:28.713Z,1014.28
2022-08-29T07:13:28.749Z,1014.23
2022-08-29T07:14:28.698Z,1014.21
2022-08-29T07:15:28.712Z,1014.21
2022-08-29T07:16:28.661Z,1014.25
2022-08-29T07:17:28.711Z,1014.24
2022-08-29T07:18:28.648Z,1014.21
2022-08-29T07:19:28.663Z,1014.17
2022-08-29T07:20:28.658Z,1014.23
2022-08-29T07:21:28.668Z,1014.25
2022-08-29T07:22:28.651Z,1014.23
2022-08-29T07:23:28.640Z,1014.30
2022-08-29T07:24:28.632Z,1014.30
2022-08-29T07:25:28.631Z,1014.30
2022-08-29T07:26:28.676Z,1014.34
2022-08-29T07:27:28.621Z,1014.35
2022-08-29T07:28:28.644Z,1014.36
2022-08-29T07:29:28.601Z,1014.33
2022-08-29T07:30:28.679Z,1014.31
2022-08-29T07:31:30.978Z,1014.37
2022-08-29T07:32:28.604Z,1014.34
2022-08-29T07:33:28.627Z,1014.36
2022-08-29T07:34:28.582Z,1014.39
2022-08-29T07:35:30.830Z,1014.41
2022-08-29T07:36:28.625Z,1014.42
2022-08-29T07:37:28.639Z,1014.46
2022-08-29T07:38:28.579Z,1014.41
2022-08-29T07:39:28.584Z,1014.40
2022-08-29T07:40:28.645Z,1014.40
2022-08-29T07:41:28.575Z,1014.37
2022-08-29T07:42:28.568Z,1014.43
2022-08-29T07:43:28.708Z,1014.42
2022-08-29T07:44:32.174Z,1014.44
2022-08-29T07:45:28.603Z,1014.42
2022-08-29T07:46:28.606Z,1014.40
2022-08-29T07:47:28.560Z,1014.41
2022-08-29T07:48:28.607Z,1014.40
2022-08-29T07:49:40.167Z,1014.34
2022-08-29T07:50:28.549Z,1014.32
2022-08-29T07:51:28.566Z,1014.30
2022-08-29T07:52:28.546Z,1014.27
2022-08-29T07:53:28.548Z,1014.27
2022-08-29T07:54:28.594Z,1014.23
2022-08-29T07:55:28.591Z,1014.24
2022-08-29T07:56:28.574Z,1014.25
2022-08-29T07:57:28.537Z,1014.25
2022-08-29T07:58:28.571Z,1014.28
2022-08-29T07:59:28.576Z,1014.28
2022-08-29T08:00:28.565Z,1014.26
2022-08-29T08:01:28.614Z,1014.29
2022-08-29T08:02:28.599Z,1014.28
2022-08-29T08:03:28.575Z,1014.28
2022-08-29T08:04:28.542Z,1014.25
2022-08-29T08:05:28.565Z,1014.28
2022-08-29T08:06:28.534Z,1014.27
2022-08-29T08:07:29.621Z,1014.24
2022-08-29T08:08:28.555Z,1014.26
2022-08-29T08:09:28.532Z,1014.29
2022-08-29T08:10:28.583Z,1014.29
2022-08-29T08:11:28.562Z,1014.28
2022-08-29T08:12:28.530Z,1014.29
2022-08-29T08:13:28.594Z,1014.29
2022-08-29T08:14:34.725Z,1014.31
2022-08-29T08:15:28.559Z,1014.32
2022-08-29T08:16:28.562Z,1014.32
2022-08-29T08:17:28.559Z,1014.27
2022-08-29T08:18:28.536Z,1014.29
2022-08-29T08:19:28.532Z,1014.31
2022-08-29T08:20:28.560Z,1014.29
2022-08-29T08:21:28.572Z,1014.31
2022-08-29T08:22:28.576Z,1014.31
2022-08-29T08:23:28.546Z,1014.30
2022-08-29T08:24:28.546Z,1014.32
2022-08-29T08:25:28.583Z,1014.31
2022-08-29T08:26:28.568Z,1014.29
2022-08-29T08:27:28.553Z,1014.28
2022-08-29T08:28:28.556Z,1014.28
2022-08-29T08:29:28.549Z,1014.29
2022-08-29T08:30:30.804Z,1014.33
2022-08-29T08:31:28.607Z,1014.34
2022-08-29T08:32:32.362Z,1014.32
2022-08-29T08:33:28.542Z,1014.29
2022-08-29T08:34:28.571Z,1014.33
2022-08-29T08:35:28.575Z,1014.36
2022-08-29T08:36:28.698Z,1014.34
2022-08-29T08:37:28.566Z,1014.33
2022-08-29T08:38:28.568Z,1014.33
2022-08-29T08:39:28.557Z,1014.35
2022-08-29T08:40:28.619Z,1014.37
2022-08-29T08:41:28.603Z,1014.36
2022-08-29T08:42:28.561Z,1014.42
2022-08-29T08:43:28.575Z,1014.42
2022-08-29T08:44:28.611Z,1014.40
2022-08-29T08:45:28.588Z,1014.38
2022-08-29T08:46:28.751Z,1014.40
2022-08-29T08:47:28.602Z,1014.46
2022-08-29T08:48:28.627Z,1014.44
2022-08-29T08:49:28.576Z,1014.48
2022-08-29T08:50:28.596Z,1014.47
2022-08-29T08:51:28.618Z,1014.46
2022-08-29T08:52:28.613Z,1014.46
2022-08-29T08:53:28.595Z,1014.43
2022-08-29T08:54:28.615Z,1014.49
2022-08-29T08:55:28.616Z,1014.51
2022-08-29T08:56:28.685Z,1014.53
2022-08-29T08:57:28.622Z,1014.52
2022-08-29T08:58:29.290Z,1014.52
2022-08-29T08:59:28.635Z,1014.51
2022-08-29T09:00:28.624Z,1014.56
2022-08-29T09:01:28.720Z,1014.53
2022-08-29T09:02:28.735Z,1014.58
2022-08-29T09:03:28.638Z,1014.54
2022-08-29T09:04:28.627Z,1014.59
2022-08-29T09:05:28.628Z,1014.59
2022-08-29T09:06:28.664Z,1014.55
2022-08-29T09:07:28.643Z,1014.58
2022-08-29T09:08:28.636Z,1014.54
2022-08-29T09:09:28.694Z,1014.52
2022-08-29T09:10:28.653Z,1014.50
2022-08-29T09:11:28.665Z,1014.49
2022-08-29T09:12:28.655Z,1014.49
2022-08-29T09:13:28.671Z,1014.51
2022-08-29T09:14:28.683Z,1014.51
2022-08-29T09:15:32.599Z,1014.47
2022-08-29T09:16:28.689Z,1014.46
2022-08-29T09:17:28.674Z,1014.46
2022-08-29T09:18:28.678Z,1014.40
2022-08-29T09:19:28.715Z,1014.42
2022-08-29T09:20:28.687Z,1014.45
2022-08-29T09:21:42.986Z,1014.45
2022-08-29T09:22:32.840Z,1014.46
2022-08-29T09:23:28.714Z,1014.47
2022-08-29T09:24:28.708Z,1014.48
2022-08-29T09:25:28.705Z,1014.50
2022-08-29T09:26:28.719Z,1014.46
2022-08-29T09:27:28.730Z,1014.46
2022-08-29T09:28:30.755Z,1014.44
2022-08-29T09:29:28.730Z,1014.47
2022-08-29T09:30:28.737Z,1014.51
2022-08-29T09:31:28.821Z,1014.49
2022-08-29T09:32:28.751Z,1014.50
2022-08-29T09:33:28.753Z,1014.49
2022-08-29T09:34:29.227Z,1014.49
2022-08-29T09:35:28.772Z,1014.46
2022-08-29T09:36:28.771Z,1014.48
2022-08-29T09:37:28.773Z,1014.46
2022-08-29T09:38:28.782Z,1014.44
2022-08-29T09:39:28.786Z,1014.44
2022-08-29T09:40:28.836Z,1014.42
2022-08-29T09:41:30.550Z,1014.45
2022-08-29T09:42:28.799Z,1014.43
2022-08-29T09:43:28.825Z,1014.38
2022-08-29T09:44:28.844Z,1014.47
2022-08-29T09:45:28.964Z,1014.45
2022-08-29T09:46:28.947Z,1014.49
2022-08-29T09:47:28.834Z,1014.45
2022-08-29T09:48:33.339Z,1014.46
2022-08-29T09:49:28.859Z,1014.44
2022-08-29T09:50:28.851Z,1014.44
2022-08-29T09:51:28.853Z,1014.47
2022-08-29T09:52:28.880Z,1014.47
2022-08-29T09:53:29.209Z,1014.47
2022-08-29T09:54:28.906Z,1014.52
2022-08-29T09:55:28.878Z,1014.51
2022-08-29T09:56:28.897Z,1014.52
2022-08-29T09:57:28.907Z,1014.45
2022-08-29T09:58:28.912Z,1014.47
2022-08-29T09:59:28.933Z,1014.44
2022-08-29T10:00:28.914Z,1014.48
2022-08-29T10:01:29.031Z,1014.43
2022-08-29T10:02:28.991Z,1014.41
2022-08-29T10:03:28.950Z,1014.41
2022-08-29T10:04:28.947Z,1014.34
2022-08-29T10:05:28.963Z,1014.39
2022-08-29T10:06:28.967Z,1014.38
2022-08-29T10:07:28.954Z,1014.37
2022-08-29T10:08:28.976Z,1014.37
2022-08-29T10:09:28.989Z,1014.36
2022-08-29T10:10:28.987Z,1014.32
2022-08-29T10:11:29.013Z,1014.33
2022-08-29T10:12:29.011Z,1014.34
2022-08-29T10:13:30.099Z,1014.34
2022-08-29T10:14:29.039Z,1014.33
2022-08-29T10:15:49.510Z,1014.30
2022-08-29T10:16:29.069Z,1014.32
2022-08-29T10:17:29.031Z,1014.33
2022-08-29T10:18:29.041Z,1014.32
2022-08-29T10:19:34.327Z,1014.38
2022-08-29T10:20:29.057Z,1014.39
2022-08-29T10:21:29.063Z,1014.34
2022-08-29T10:22:29.067Z,1014.31
2022-08-29T10:23:29.073Z,1014.32
2022-08-29T10:24:29.077Z,1014.31
2022-08-29T10:25:29.075Z,1014.30
2022-08-29T10:26:29.148Z,1014.24
2022-08-29T10:27:29.111Z,1014.20
2022-08-29T10:28:29.126Z,1014.23
2022-08-29T10:29:31.726Z,1014.21
2022-08-29T10:30:29.135Z,1014.25
2022-08-29T10:31:29.172Z,1014.20
2022-08-29T10:32:29.147Z,1014.21
2022-08-29T10:33:29.135Z,1014.20
2022-08-29T10:34:29.153Z,1014.17
2022-08-29T10:35:29.166Z,1014.15
2022-08-29T10:36:29.153Z,1014.13
2022-08-29T10:37:29.187Z,1014.11
2022-08-29T10:38:29.179Z,1014.12
2022-08-29T10:39:29.215Z,1014.14
2022-08-29T10:40:29.236Z,1014.18
2022-08-29T10:41:29.195Z,1014.16
2022-08-29T10:42:29.199Z,1014.13
2022-08-29T10:43:29.217Z,1014.14
2022-08-29T10:44:29.215Z,1014.10
2022-08-29T10:45:29.293Z,1014.10
2022-08-29T10:46:29.227Z,1014.09
2022-08-29T10:47:29.276Z,1014.09
2022-08-29T10:48:29.267Z,1014.07
2022-08-29T10:49:29.252Z,1014.04
2022-08-29T10:50:45.313Z,1014.03
2022-08-29T10:51:29.291Z,1013.98
2022-08-29T10:52:29.279Z,1013.90
2022-08-29T10:53:29.289Z,1013.86
2022-08-29T10:54:29.301Z,1013.97
2022-08-29T10:55:29.309Z,1013.87
2022-08-29T10:56:29.327Z,1013.87
2022-08-29T10:57:29.311Z,1013.85
2022-08-29T10:58:29.313Z,1013.90
2022-08-29T10:59:29.327Z,1013.85
2022-08-29T11:00:29.369Z,1013.87
2022-08-29T11:01:29.540Z,1013.88
2022-08-29T11:02:29.351Z,1013.88
2022-08-29T11:03:29.386Z,1013.82
2022-08-29T11:04:29.406Z,1013.83
2022-08-29T11:05:29.380Z,1013.76
2022-08-29T11:06:29.428Z,1013.74
2022-08-29T11:07:29.421Z,1013.75
2022-08-29T11:08:29.397Z,1013.74
2022-08-29T11:09:29.402Z,1013.79
2022-08-29T11:10:29.405Z,1013.76
2022-08-29T11:11:29.406Z,1013.74
2022-08-29T11:12:29.418Z,1013.74
2022-08-29T11:13:29.458Z,1013.74
2022-08-29T11:14:29.453Z,1013.70
2022-08-29T11:15:29.461Z,1013.68
2022-08-29T11:16:29.517Z,1013.75
2022-08-29T11:17:29.455Z,1013.67
2022-08-29T11:18:29.470Z,1013.60
2022-08-29T11:19:29.465Z,1013.61
2022-08-29T11:20:29.507Z,1013.63
2022-08-29T11:21:29.509Z,1013.66
2022-08-29T11:22:29.490Z,1013.63
2022-08-29T11:23:30.368Z,1013.68
2022-08-29T11:24:34.186Z,1013.65
2022-08-29T11:25:29.512Z,1013.66
2022-08-29T11:26:29.519Z,1013.66
2022-08-29T11:27:29.545Z,1013.58
2022-08-29T11:28:29.550Z,1013.62
2022-08-29T11:29:29.578Z,1013.61
2022-08-29T11:30:29.555Z,1013.57
2022-08-29T11:31:29.594Z,1013.59
2022-08-29T11:32:29.584Z,1013.54
2022-08-29T11:33:29.576Z,1013.60
2022-08-29T11:34:29.615Z,1013.56
2022-08-29T11:35:29.605Z,1013.54
2022-08-29T11:36:29.609Z,1013.49
2022-08-29T11:37:29.601Z,1013.46
2022-08-29T11:38:29.608Z,1013.37
2022-08-29T11:39:29.626Z,1013.37
2022-08-29T11:41:30.252Z,1013.36
2022-08-29T11:43:29.664Z,1013.38
2022-08-29T11:44:29.675Z,1013.35
2022-08-29T11:45:35.744Z,1013.34
2022-08-29T11:46:29.737Z,1013.29
2022-08-29T11:47:29.675Z,1013.27
2022-08-29T11:48:29.678Z,1013.29
2022-08-29T11:49:29.689Z,1013.27
2022-08-29T11:50:29.676Z,1013.25
2022-08-29T11:51:29.685Z,1013.24
2022-08-29T11:52:29.709Z,1013.24
2022-08-29T11:53:29.741Z,1013.28
2022-08-29T11:54:29.733Z,1013.24
2022-08-29T11:55:29.741Z,1013.25
2022-08-29T11:56:29.712Z,1013.24
2022-08-29T11:57:29.715Z,1013.21
2022-08-29T11:58:29.729Z,1013.22
2022-08-29T11:59:29.757Z,1013.24
2022-08-29T12:00:29.732Z,1013.20
2022-08-29T12:01:29.748Z,1013.19
2022-08-29T12:02:29.730Z,1013.18
2022-08-29T12:03:30.308Z,1013.17
2022-08-29T12:04:29.859Z,1013.16
2022-08-29T12:05:29.741Z,1013.15
2022-08-29T12:06:29.752Z,1013.17
2022-08-29T12:07:29.756Z,1013.14